Time;durP1;ratioP1;P1;durP2;ratioP2;P2;SDS_P1;SDS_P2;PMS_P1;PMS_P2;Temp;Humidity;BMP_temperature;BMP_pressure;BME280_temperature;BME280_humidity;BME280_pressure;Samples;Min_cycle;Max_cycle;Signal;HPM_P1;HPM_P2
2022/11/14 00:02:03;;;;;;;9.83;8.93;;;;;;;6.83;100.00;100313.59;5062664;28;20274;-77
2022/11/14 00:04:29;;;;;;;9.23;8.43;;;;;;;6.84;100.00;100311.91;5064388;28;20537;-76
2022/11/14 00:06:54;;;;;;;9.30;8.50;;;;;;;6.83;100.00;100302.44;5057365;28;20192;-77
2022/11/14 00:09:24;;;;;;;9.83;9.00;;;;;;;6.83;100.00;100292.16;5066340;28;20287;-77
2022/11/14 00:11:49;;;;;;;9.50;8.70;;;;;;;6.81;100.00;100299.00;5064435;28;20200;-76
2022/11/14 00:14:14;;;;;;;9.13;8.33;;;;;;;6.79;100.00;100293.00;5058491;28;20197;-77
2022/11/14 00:16:40;;;;;;;9.00;8.20;;;;;;;6.78;100.00;100305.00;5057455;28;20213;-77
2022/11/14 00:19:05;;;;;;;9.50;8.60;;;;;;;6.77;100.00;100295.56;5065379;28;20200;-77
2022/11/14 00:21:33;;;;;;;9.07;8.27;;;;;;;6.79;100.00;100296.44;5056813;28;20202;-77
2022/11/14 00:23:59;;;;;;;8.90;8.13;;;;;;;6.80;100.00;100293.00;5064545;28;20267;-77
2022/11/14 00:26:24;;;;;;;8.70;7.90;;;;;;;6.80;100.00;100290.44;5061725;28;20814;-77
2022/11/14 00:28:49;;;;;;;8.43;7.73;;;;;;;6.79;100.00;100296.44;5065698;28;20208;-76
2022/11/14 00:31:15;;;;;;;8.93;8.13;;;;;;;6.79;100.00;100280.13;5068306;28;20202;-77
2022/11/14 00:33:40;;;;;;;9.33;8.43;;;;;;;6.79;100.00;100291.28;5065196;28;20190;-77
2022/11/14 00:36:06;;;;;;;9.20;8.40;;;;;;;6.80;100.00;100289.56;5075136;28;20217;-77
2022/11/14 00:38:31;;;;;;;9.00;8.20;;;;;;;6.77;100.00;100282.69;5067909;28;20547;-77
2022/11/14 00:40:56;;;;;;;8.83;8.13;;;;;;;6.74;100.00;100282.69;5065537;28;20206;-77
2022/11/14 00:43:22;;;;;;;9.17;8.30;;;;;;;6.73;100.00;100282.69;5057960;28;20269;-77
2022/11/14 00:45:47;;;;;;;9.03;8.23;;;;;;;6.71;100.00;100287.78;5064620;28;20187;-77
2022/11/14 00:48:13;;;;;;;8.87;7.97;;;;;;;6.70;100.00;100286.94;5089401;28;20660;-76
2022/11/14 00:50:39;;;;;;;8.43;7.73;;;;;;;6.71;100.00;100280.94;5079422;28;20650;-76
2022/11/14 00:53:04;;;;;;;8.83;8.03;;;;;;;6.74;100.00;100286.94;5059278;28;20193;-77
2022/11/14 00:55:30;;;;;;;8.70;7.97;;;;;;;6.75;100.00;100291.22;5073168;28;20246;-77
2022/11/14 00:57:55;;;;;;;8.23;7.53;;;;;;;6.76;100.00;100291.25;5068039;28;20696;-76
2022/11/14 01:00:20;;;;;;;9.20;8.43;;;;;;;6.76;100.00;100282.66;5067214;28;20197;-77
2022/11/14 01:02:46;;;;;;;8.87;8.10;;;;;;;6.74;100.00;100290.38;5057735;28;20692;-77
2022/11/14 01:05:11;;;;;;;9.23;8.40;;;;;;;6.72;100.00;100286.94;5075915;28;20580;-77
2022/11/14 01:07:36;;;;;;;9.40;8.60;;;;;;;6.70;100.00;100286.06;5068143;28;20201;-77
2022/11/14 01:10:02;;;;;;;8.90;8.10;;;;;;;6.69;100.00;100292.06;5062190;28;20212;-77
2022/11/14 01:12:28;;;;;;;8.70;7.90;;;;;;;6.69;100.00;100287.78;5062313;28;20213;-76
2022/11/14 01:14:53;;;;;;;8.60;7.90;;;;;;;6.71;100.00;100288.66;5065545;28;20185;-77
2022/11/14 01:17:19;;;;;;;9.27;8.43;;;;;;;6.71;100.00;100283.53;5063689;28;20189;-76
2022/11/14 01:19:44;;;;;;;9.83;9.03;;;;;;;6.71;100.00;100286.09;5062008;28;20216;-77
2022/11/14 01:22:09;;;;;;;9.20;8.40;;;;;;;6.72;100.00;100279.22;5064900;28;20228;-77
2022/11/14 01:24:34;;;;;;;9.60;8.80;;;;;;;6.74;100.00;100274.09;5061845;28;20178;-77
2022/11/14 01:27:00;;;;;;;9.47;8.67;;;;;;;6.76;100.00;100267.25;5055305;28;20309;-77
2022/11/14 01:29:26;;;;;;;10.70;9.70;;;;;;;6.78;100.00;100268.13;5058246;28;20301;-77
2022/11/14 01:31:52;;;;;;;9.83;8.93;;;;;;;6.78;100.00;100256.13;5067555;28;20197;-76
2022/11/14 01:34:18;;;;;;;9.73;8.83;;;;;;;6.78;100.00;100251.00;5059611;28;20937;-77
2022/11/14 01:36:43;;;;;;;8.97;8.17;;;;;;;6.76;100.00;100238.94;5062940;28;20179;-77
2022/11/14 01:39:09;;;;;;;9.10;8.30;;;;;;;6.77;100.00;100241.53;5061360;28;20184;-77
2022/11/14 01:41:35;;;;;;;8.83;8.03;;;;;;;6.75;100.00;100237.22;5056662;28;20203;-77
2022/11/14 01:44:00;;;;;;;8.60;7.80;;;;;;;6.73;100.00;100232.09;5052953;28;20213;-76
2022/11/14 01:46:39;;;;;;;8.77;8.00;;;;;;;6.70;100.00;100232.94;5063084;28;20298;-77
2022/11/14 01:49:09;;;;;;;9.23;8.43;;;;;;;6.67;100.00;100232.91;5066048;28;20215;-77
2022/11/14 01:51:42;;;;;;;9.33;8.53;;;;;;;6.63;100.00;100228.59;5061503;28;20213;-77
2022/11/14 01:54:21;;;;;;;9.50;8.60;;;;;;;6.60;100.00;100220.84;5063636;28;20229;-77
2022/11/14 01:56:53;;;;;;;8.67;7.97;;;;;;;6.58;100.00;100219.13;5060259;28;20193;-77
2022/11/14 01:59:24;;;;;;;9.30;8.50;;;;;;;6.58;100.00;100217.41;5053394;28;20184;-77
2022/11/14 02:01:51;;;;;;;9.93;8.93;;;;;;;6.56;100.00;100207.13;5063098;28;20214;-77
2022/11/14 02:04:22;;;;;;;9.10;8.23;;;;;;;6.56;100.00;100207.13;5064087;28;20217;-76
2022/11/14 02:06:49;;;;;;;8.40;7.70;;;;;;;6.55;100.00;100207.97;5063051;28;20186;-77
2022/11/14 02:09:15;;;;;;;8.87;8.07;;;;;;;6.54;100.00;100208.81;5056479;28;20251;-77
2022/11/14 02:11:43;;;;;;;9.13;8.33;;;;;;;6.52;100.00;100202.81;5056131;28;20237;-77
2022/11/14 02:14:09;;;;;;;8.67;7.90;;;;;;;6.52;100.00;100191.69;5059261;28;20269;-77
2022/11/14 02:16:35;;;;;;;8.70;8.00;;;;;;;6.49;100.00;100178.78;5079881;28;20257;-77
2022/11/14 02:19:00;;;;;;;8.70;7.90;;;;;;;6.46;100.00;100176.19;5060355;28;20250;-76
2022/11/14 02:21:26;;;;;;;8.43;7.73;;;;;;;6.44;100.00;100173.63;5061233;28;20205;-76
2022/11/14 02:23:51;;;;;;;9.53;8.63;;;;;;;6.43;100.00;100181.34;5065002;28;20204;-76
2022/11/14 02:26:21;;;;;;;8.67;7.87;;;;;;;6.40;100.00;100170.19;5063247;28;20198;-76
2022/11/14 02:28:46;;;;;;;9.77;8.83;;;;;;;6.37;100.00;100185.59;5075728;28;20200;-76
2022/11/14 02:31:12;;;;;;;8.80;8.03;;;;;;;6.35;100.00;100182.13;5063187;28;20330;-77
2022/11/14 02:33:38;;;;;;;8.97;8.17;;;;;;;6.35;100.00;100181.28;5060504;28;20195;-77
2022/11/14 02:36:04;;;;;;;9.17;8.27;;;;;;;6.35;100.00;100171.84;5069439;28;20188;-77
2022/11/14 02:38:29;;;;;;;9.10;8.30;;;;;;;6.34;100.00;100172.72;5066246;28;20185;-76
2022/11/14 02:40:54;;;;;;;8.87;8.07;;;;;;;6.35;100.00;100171.84;5070687;28;22675;-77
2022/11/14 02:43:20;;;;;;;8.43;7.70;;;;;;;6.36;100.00;100165.00;5063558;28;20299;-77
2022/11/14 02:45:45;;;;;;;7.67;7.00;;;;;;;6.34;100.00;100170.13;5068280;28;20172;-77
2022/11/14 02:48:11;;;;;;;9.00;8.20;;;;;;;6.35;100.00;100163.31;5068300;28;20200;-77
2022/11/14 02:50:36;;;;;;;8.30;7.50;;;;;;;6.34;100.00;100169.28;5065394;28;20567;-77
2022/11/14 02:53:01;;;;;;;8.27;7.57;;;;;;;6.33;100.00;100170.13;5067298;28;20231;-77
2022/11/14 02:55:27;;;;;;;8.30;7.57;;;;;;;6.33;100.00;100170.13;5075024;28;20193;-77
2022/11/14 02:57:52;;;;;;;7.83;7.13;;;;;;;6.31;100.00;100166.69;5065933;28;20185;-77
2022/11/14 03:00:18;;;;;;;7.73;7.03;;;;;;;6.29;100.00;100163.25;5062818;28;20920;-77
2022/11/14 03:02:43;;;;;;;8.67;7.87;;;;;;;6.27;100.00;100175.22;5061162;28;20303;-77
2022/11/14 03:05:09;;;;;;;8.70;7.80;;;;;;;6.25;100.00;100168.38;5058761;28;20185;-77
2022/11/14 03:07:34;;;;;;;8.00;7.20;;;;;;;6.25;100.00;100175.22;5058866;28;20552;-76
2022/11/14 03:10:00;;;;;;;8.57;7.77;;;;;;;6.25;100.00;100176.06;5071497;28;20224;-77
2022/11/14 03:12:25;;;;;;;9.73;8.87;;;;;;;6.24;100.00;100176.06;5061454;28;20286;-77
2022/11/14 03:14:50;;;;;;;9.33;8.43;;;;;;;6.19;100.00;100175.16;5055506;28;20181;-77
2022/11/14 03:17:16;;;;;;;9.90;9.00;;;;;;;6.17;100.00;100171.72;5070351;28;20267;-77
2022/11/14 03:19:41;;;;;;;9.37;8.57;;;;;;;6.15;100.00;100168.28;5073296;28;20558;-77
2022/11/14 03:22:06;;;;;;;10.33;9.33;;;;;;;6.15;100.00;100173.41;5057205;28;20209;-77
2022/11/14 03:24:32;;;;;;;9.47;8.60;;;;;;;6.14;100.00;100164.88;5062022;28;20181;-77
2022/11/14 03:26:57;;;;;;;9.27;8.47;;;;;;;6.13;100.00;100160.56;5063988;28;20183;-77
2022/11/14 03:29:22;;;;;;;9.07;7.90;;;;;;;6.09;100.00;100154.56;5066524;28;20302;-78
2022/11/14 03:31:47;;;;;;;8.77;7.97;;;;;;;6.09;100.00;100159.69;5061666;28;20294;-76
2022/11/14 03:34:13;;;;;;;8.37;7.57;;;;;;;6.09;100.00;100162.28;5060535;28;20227;-77
2022/11/14 03:36:38;;;;;;;8.70;7.90;;;;;;;6.09;100.00;100161.38;5061240;28;20203;-77
2022/11/14 03:39:04;;;;;;;8.03;7.33;;;;;;;6.03;100.00;100153.66;5070090;28;20237;-77
2022/11/14 03:41:30;;;;;;;8.73;7.93;;;;;;;6.01;100.00;100147.66;5056756;28;20219;-77
2022/11/14 03:43:55;;;;;;;7.40;6.80;;;;;;;5.98;100.00;100151.00;5062034;28;20244;-77
2022/11/14 03:46:21;;;;;;;7.13;6.43;;;;;;;5.96;100.00;100152.72;5084622;28;20233;-77
2022/11/14 03:48:46;;;;;;;7.23;6.53;;;;;;;5.95;100.00;100145.84;5065949;28;20206;-77
2022/11/14 03:51:12;;;;;;;8.17;7.30;;;;;;;5.89;100.00;100143.22;5076073;28;20225;-77
2022/11/14 03:53:38;;;;;;;7.63;6.93;;;;;;;5.81;100.00;100143.16;5066523;28;20274;-76
2022/11/14 03:56:03;;;;;;;7.60;6.90;;;;;;;5.76;100.00;100147.41;5067098;28;20752;-76
2022/11/14 03:58:29;;;;;;;8.03;7.23;;;;;;;5.67;100.00;100152.47;5071629;28;20269;-77
2022/11/14 04:00:54;;;;;;;8.27;7.47;;;;;;;5.58;100.00;100151.53;5067794;28;20639;-77
2022/11/14 04:03:21;;;;;;;9.03;7.67;;;;;;;5.53;100.00;100150.63;5064791;28;20190;-77
2022/11/14 04:05:46;;;;;;;9.50;8.50;;;;;;;5.45;100.00;100144.53;5062176;28;20196;-77
2022/11/14 04:08:12;;;;;;;9.10;8.30;;;;;;;5.33;100.00;100145.31;5064270;28;20193;-76
2022/11/14 04:10:37;;;;;;;9.67;8.77;;;;;;;5.22;100.00;100136.66;5064169;28;20207;-76
2022/11/14 04:13:04;;;;;;;9.53;8.63;;;;;;;5.14;100.00;100123.75;5061641;28;20279;-77
2022/11/14 04:15:29;;;;;;;9.10;8.30;;;;;;;5.05;100.00;100129.63;5065314;28;20213;-76
2022/11/14 04:17:54;;;;;;;9.27;8.37;;;;;;;5.00;100.00;100123.56;5065672;28;20257;-77
2022/11/14 04:20:20;;;;;;;9.23;8.37;;;;;;;4.92;100.00;100115.78;5070423;28;20176;-77
2022/11/14 04:22:45;;;;;;;8.97;8.13;;;;;;;4.83;100.00;100110.56;5065099;28;20289;-76
2022/11/14 04:25:11;;;;;;;9.77;8.87;;;;;;;4.77;100.00;100110.50;5065952;28;20199;-77
2022/11/14 04:27:36;;;;;;;8.73;7.93;;;;;;;4.69;100.00;100106.13;5059179;28;20261;-77
2022/11/14 04:30:03;;;;;;;10.40;8.97;;;;;;;4.57;100.00;100095.72;5066990;28;20230;-77
2022/11/14 04:32:28;;;;;;;10.03;9.03;;;;;;;4.46;100.00;100098.16;5062565;28;20213;-77
2022/11/14 04:34:54;;;;;;;9.80;8.80;;;;;;;4.34;100.00;100105.66;5068928;28;20560;-77
2022/11/14 04:37:19;;;;;;;10.10;9.10;;;;;;;4.23;100.00;100108.09;5069891;28;20195;-77
2022/11/14 04:39:44;;;;;;;9.93;8.97;;;;;;;4.15;100.00;100105.44;5068895;28;20177;-77
2022/11/14 04:42:10;;;;;;;9.20;8.40;;;;;;;4.06;100.00;100103.59;5066227;28;20204;-77
2022/11/14 04:44:35;;;;;;;9.23;8.33;;;;;;;4.00;100.00;100102.66;5067274;28;20178;-77
2022/11/14 04:47:00;;;;;;;9.60;8.60;;;;;;;3.95;100.00;100108.56;5068767;28;20185;-77
2022/11/14 04:49:25;;;;;;;9.77;8.87;;;;;;;3.94;100.00;100108.50;5061910;28;20201;-76
2022/11/14 04:51:51;;;;;;;9.80;8.80;;;;;;;3.91;100.00;100104.22;5057696;28;20200;-76
2022/11/14 04:54:16;;;;;;;9.40;8.60;;;;;;;3.93;100.00;100112.78;5061283;28;20187;-77
2022/11/14 04:56:41;;;;;;;9.27;8.47;;;;;;;3.92;100.00;100117.91;5062792;28;20197;-77
2022/11/14 04:59:07;;;;;;;9.07;8.20;;;;;;;3.95;100.00;100126.47;5061506;28;20185;-76
2022/11/14 05:01:33;;;;;;;9.10;8.30;;;;;;;3.99;100.00;100119.69;5066761;28;20839;-77
2022/11/14 05:03:59;;;;;;;10.40;9.40;;;;;;;4.04;100.00;100119.75;5065220;28;20273;-76
2022/11/14 05:06:24;;;;;;;9.43;8.53;;;;;;;4.08;100.00;100114.69;5065446;28;20182;-77
2022/11/14 05:08:49;;;;;;;10.13;9.10;;;;;;;4.13;100.00;100109.66;5060944;28;20584;-77
2022/11/14 05:11:17;;;;;;;9.50;8.60;;;;;;;4.19;100.00;100107.19;5070257;28;20989;-77
2022/11/14 05:13:43;;;;;;;10.03;9.07;;;;;;;4.27;100.00;100110.72;5061226;28;20207;-77
2022/11/14 05:16:09;;;;;;;9.00;8.10;;;;;;;4.32;100.00;100110.78;5056083;28;20198;-75
2022/11/14 05:18:35;;;;;;;8.93;8.13;;;;;;;4.36;100.00;100109.13;5062113;28;20373;-77
2022/11/14 05:21:01;;;;;;;10.07;9.13;;;;;;;4.40;100.00;100104.03;5064288;28;20210;-77
2022/11/14 05:23:26;;;;;;;9.37;8.57;;;;;;;4.43;100.00;100095.56;5061708;28;21002;-77
2022/11/14 05:26:05;;;;;;;8.77;7.97;;;;;;;4.45;100.00;100096.44;5063902;28;20182;-77
2022/11/14 05:28:31;;;;;;;7.70;7.00;;;;;;;4.48;100.00;100100.72;5063015;28;20661;-77
2022/11/14 05:31:08;;;;;;;7.33;6.73;;;;;;;4.51;100.00;100103.34;5063896;28;20272;-76
2022/11/14 05:33:34;;;;;;;8.37;7.17;;;;;;;4.53;100.00;100093.97;5066168;28;20712;-77
2022/11/14 05:36:07;;;;;;;7.57;6.87;;;;;;;4.53;100.00;100093.97;5063396;28;20205;-76
2022/11/14 05:38:33;;;;;;;8.77;7.27;;;;;;;4.51;100.00;100088.81;5066513;28;20174;-76
2022/11/14 05:41:03;;;;;;;8.20;7.40;;;;;;;4.46;100.00;100087.91;5061834;28;20557;-77
2022/11/14 05:43:29;;;;;;;7.10;6.50;;;;;;;4.44;100.00;100076.78;5058659;28;20813;-77
2022/11/14 05:45:58;;;;;;;7.37;6.63;;;;;;;4.41;100.00;100067.34;5061778;28;20272;-76
2022/11/14 05:48:23;;;;;;;7.27;6.57;;;;;;;4.40;100.00;100057.06;5061423;28;20224;-77
2022/11/14 05:50:53;;;;;;;7.60;7.00;;;;;;;4.39;100.00;100055.34;5067467;28;20241;-76
2022/11/14 05:53:18;;;;;;;7.00;6.40;;;;;;;4.34;100.00;100059.56;5061035;28;20825;-77
2022/11/14 05:55:44;;;;;;;6.83;6.17;;;;;;;4.26;100.00;100052.66;5062556;28;20195;-77
2022/11/14 05:58:09;;;;;;;6.60;6.00;;;;;;;4.20;100.00;100051.69;5060918;28;20191;-77
2022/11/14 06:00:34;;;;;;;5.90;5.40;;;;;;;4.12;100.00;100055.00;5067083;28;20191;-77
2022/11/14 06:03:00;;;;;;;6.37;5.60;;;;;;;4.08;100.00;100063.47;5061400;28;20584;-77
2022/11/14 06:05:25;;;;;;;6.73;6.10;;;;;;;4.04;100.00;100051.50;5059576;28;20236;-77
2022/11/14 06:07:55;;;;;;;6.27;5.73;;;;;;;3.98;100.00;100053.94;5059852;28;20235;-77
2022/11/14 06:10:21;;;;;;;6.00;5.40;;;;;;;3.96;100.00;100042.81;5063438;28;20210;-77
2022/11/14 06:12:46;;;;;;;5.47;4.97;;;;;;;3.99;100.00;100057.41;5058775;28;20754;-77
2022/11/14 06:15:12;;;;;;;5.70;5.20;;;;;;;4.00;100.00;100061.69;5068819;28;20265;-76
2022/11/14 06:17:37;;;;;;;7.17;6.57;;;;;;;4.01;100.00;100054.00;5059088;28;20294;-76
2022/11/14 06:20:03;;;;;;;7.43;6.73;;;;;;;4.01;100.00;100054.00;5067000;28;20194;-78
2022/11/14 06:22:28;;;;;;;6.47;5.87;;;;;;;4.00;100.00;100048.88;5058274;28;20207;-76
2022/11/14 06:24:54;;;;;;;6.03;5.23;;;;;;;3.99;100.00;100053.13;5063979;28;20266;-77
2022/11/14 06:27:19;;;;;;;5.77;5.27;;;;;;;4.01;100.00;100045.47;5064110;28;20186;-76
2022/11/14 06:29:44;;;;;;;6.90;6.30;;;;;;;4.02;100.00;100029.25;5062164;28;20212;-76
2022/11/14 06:32:10;;;;;;;6.37;5.77;;;;;;;4.05;100.00;100026.72;5064285;28;20196;-76
2022/11/14 06:34:35;;;;;;;5.80;5.30;;;;;;;4.09;100.00;100021.66;5058804;28;20234;-76
2022/11/14 06:37:00;;;;;;;6.47;5.87;;;;;;;4.09;100.00;100020.81;5063144;28;20179;-76
2022/11/14 06:39:25;;;;;;;8.20;7.30;;;;;;;4.09;100.00;100021.66;5062355;28;20796;-76
2022/11/14 06:41:51;;;;;;;7.63;6.83;;;;;;;4.08;100.00;100027.63;5063740;28;20210;-76
2022/11/14 06:44:16;;;;;;;8.23;7.43;;;;;;;4.10;100.00;100032.78;5061078;28;20182;-76
2022/11/14 06:46:42;;;;;;;7.80;7.00;;;;;;;4.10;100.00;100031.06;5056090;28;20188;-76
2022/11/14 06:49:07;;;;;;;9.23;7.97;;;;;;;4.14;100.00;100033.69;5059955;28;20217;-76
2022/11/14 06:51:32;;;;;;;8.10;7.30;;;;;;;4.20;100.00;100041.47;5060344;28;20213;-76
2022/11/14 06:53:58;;;;;;;8.30;7.50;;;;;;;4.25;100.00;100048.34;5062923;28;20215;-76
2022/11/14 06:56:23;;;;;;;10.10;8.87;;;;;;;4.32;100.00;100048.41;5056980;28;20190;-75
2022/11/14 06:58:49;;;;;;;9.67;8.40;;;;;;;4.36;100.00;100055.31;5060796;28;20192;-76
2022/11/14 07:01:20;;;;;;;9.53;8.40;;;;;;;4.37;100.00;100055.34;5057430;28;20202;-76
2022/11/14 07:03:46;;;;;;;9.60;8.60;;;;;;;4.42;100.00;100052.84;5054908;28;20266;-76
2022/11/14 07:06:17;;;;;;;10.83;9.73;;;;;;;4.48;100.00;100058.00;5078892;28;20307;-76
2022/11/14 07:08:43;;;;;;;10.13;9.00;;;;;;;4.55;100.00;100054.69;5061818;28;20197;-75
2022/11/14 07:11:11;;;;;;;9.93;8.93;;;;;;;4.65;100.00;100065.06;5067690;28;20206;-77
2022/11/14 07:13:37;;;;;;;9.77;8.87;;;;;;;4.73;100.00;100063.44;5062792;28;20188;-77
2022/11/14 07:16:04;;;;;;;8.80;8.00;;;;;;;4.81;100.00;100066.94;5063807;28;20278;-78
2022/11/14 07:18:31;;;;;;;8.33;7.60;;;;;;;4.91;100.00;100067.06;5061547;28;20193;-77
2022/11/14 07:21:01;;;;;;;9.03;8.23;;;;;;;4.97;100.00;100069.69;5065779;28;20177;-77
2022/11/14 07:23:27;;;;;;;9.33;8.53;;;;;;;5.02;100.00;100068.88;5063393;28;20177;-77
2022/11/14 07:25:52;;;;;;;10.57;9.57;;;;;;;5.04;100.00;100066.34;5062844;28;20196;-77
2022/11/14 07:28:18;;;;;;;8.93;8.07;;;;;;;5.09;100.00;100069.78;5062393;28;20695;-77
2022/11/14 07:30:44;;;;;;;9.27;8.47;;;;;;;5.16;100.00;100068.16;5062131;28;20769;-76
2022/11/14 07:33:10;;;;;;;9.53;8.73;;;;;;;5.18;100.00;100071.59;5068899;28;20269;-77
2022/11/14 07:35:37;;;;;;;9.63;8.73;;;;;;;5.17;100.00;100080.13;5061758;28;20222;-77
2022/11/14 07:38:03;;;;;;;9.53;8.73;;;;;;;5.17;100.00;100080.13;5067418;28;20183;-77
2022/11/14 07:40:29;;;;;;;9.00;8.30;;;;;;;5.18;100.00;100077.59;5064494;28;20209;-77
2022/11/14 07:43:01;;;;;;;8.50;7.80;;;;;;;5.24;100.00;100089.63;5063573;28;20938;-77
2022/11/14 07:45:28;;;;;;;8.47;7.87;;;;;;;5.28;100.00;100081.13;5069862;28;20295;-77
2022/11/14 07:47:58;;;;;;;8.90;8.20;;;;;;;5.32;100.00;100077.72;5065940;28;20183;-77
2022/11/14 07:50:25;;;;;;;9.63;8.73;;;;;;;5.37;100.00;100085.44;5070594;28;20204;-76
2022/11/14 07:52:52;;;;;;;9.07;8.27;;;;;;;5.39;100.00;100083.75;5063486;28;20266;-77
2022/11/14 07:55:18;;;;;;;8.87;8.17;;;;;;;5.42;100.00;100083.78;5057196;28;20196;-77
2022/11/14 07:57:43;;;;;;;9.70;8.33;;;;;;;5.43;100.00;100082.94;5061379;28;20906;-76
2022/11/14 08:00:09;;;;;;;8.50;7.80;;;;;;;5.47;100.00;100081.25;5069231;28;20261;-76
2022/11/14 08:02:35;;;;;;;7.63;7.03;;;;;;;5.54;100.00;100075.34;5059927;28;20205;-77
2022/11/14 08:05:00;;;;;;;8.30;7.67;;;;;;;5.61;100.00;100078.81;5061057;28;20184;-77
2022/11/14 08:07:26;;;;;;;8.73;8.00;;;;;;;5.68;100.00;100078.00;5063070;28;20266;-77
2022/11/14 08:09:51;;;;;;;8.33;7.63;;;;;;;5.74;100.00;100090.91;5067334;28;21001;-77
2022/11/14 08:12:16;;;;;;;8.10;7.47;;;;;;;5.78;100.00;100087.53;5068356;28;20312;-77
2022/11/14 08:14:42;;;;;;;8.30;7.60;;;;;;;5.82;100.00;100090.13;5060473;28;20180;-77
2022/11/14 08:17:07;;;;;;;8.27;7.57;;;;;;;5.85;100.00;100090.13;5068934;28;20186;-77
2022/11/14 08:19:32;;;;;;;7.93;7.23;;;;;;;5.88;100.00;100087.56;5055358;28;20193;-77
2022/11/14 08:21:57;;;;;;;7.23;6.63;;;;;;;5.93;100.00;100089.31;5060226;28;20674;-77
2022/11/14 08:24:23;;;;;;;8.27;7.60;;;;;;;6.01;100.00;100093.69;5056127;28;20187;-77
2022/11/14 08:26:48;;;;;;;7.30;6.70;;;;;;;6.08;100.00;100090.31;5056242;28;20190;-77
2022/11/14 08:29:13;;;;;;;7.30;6.70;;;;;;;6.14;100.00;100090.34;5065553;28;20200;-77
2022/11/14 08:31:39;;;;;;;7.53;6.93;;;;;;;6.17;100.00;100086.94;5052740;28;20209;-77
2022/11/14 08:34:04;;;;;;;7.40;6.80;;;;;;;6.18;100.00;100097.25;5060736;28;20296;-76
2022/11/14 08:36:30;;;;;;;6.50;5.97;;;;;;;6.19;100.00;100088.69;5063870;28;20221;-76
2022/11/14 08:38:55;;;;;;;7.63;6.93;;;;;;;6.20;100.00;100086.97;5063379;28;20189;-76
2022/11/14 08:41:20;;;;;;;7.63;6.93;;;;;;;6.18;100.00;100096.38;5061402;28;20201;-77
2022/11/14 08:43:46;;;;;;;7.80;7.13;;;;;;;6.13;100.00;100096.34;5064889;28;20185;-76
2022/11/14 08:46:11;;;;;;;7.73;7.03;;;;;;;6.08;100.00;100100.56;5060131;28;20176;-75
2022/11/14 08:48:36;;;;;;;7.37;6.77;;;;;;;6.06;100.00;100095.44;5062542;28;20212;-76
2022/11/14 08:51:05;;;;;;;7.40;6.80;;;;;;;6.08;100.00;100090.31;5065295;28;20194;-77
2022/11/14 08:53:32;;;;;;;7.63;6.93;;;;;;;6.10;100.00;100086.03;5068150;28;20188;-77
2022/11/14 08:55:57;;;;;;;7.07;6.53;;;;;;;6.13;100.00;100083.50;5060332;28;20197;-77
2022/11/14 08:58:22;;;;;;;6.70;6.07;;;;;;;6.21;100.00;100088.69;5069394;28;20736;-77
2022/11/14 09:00:48;;;;;;;8.23;7.53;;;;;;;6.24;100.00;100089.53;5061760;28;20181;-76
2022/11/14 09:03:14;;;;;;;7.10;6.60;;;;;;;6.29;100.00;100083.56;5064695;28;20261;-76
2022/11/14 09:05:40;;;;;;;7.30;6.70;;;;;;;6.34;100.00;100087.03;5063717;28;20197;-77
2022/11/14 09:08:06;;;;;;;7.93;7.23;;;;;;;6.36;100.00;100086.19;5068903;28;20189;-75
2022/11/14 09:10:32;;;;;;;7.60;7.00;;;;;;;6.42;100.00;100082.78;5067889;28;20251;-76
2022/11/14 09:12:59;;;;;;;7.83;7.03;;;;;;;6.48;100.00;100074.25;5061430;28;20230;-75
2022/11/14 09:15:26;;;;;;;7.30;6.60;;;;;;;6.52;100.00;100079.41;5069755;28;20185;-76
2022/11/14 09:17:56;;;;;;;8.03;6.70;;;;;;;6.55;100.00;100081.97;5066629;28;20215;-76
2022/11/14 09:20:25;;;;;;;6.40;5.90;;;;;;;6.62;100.00;100079.44;5069564;28;20257;-77
2022/11/14 09:22:52;;;;;;;7.77;6.27;;;;;;;6.66;100.00;100084.59;5061770;28;20231;-76
2022/11/14 09:25:20;;;;;;;7.27;6.67;;;;;;;6.68;100.00;100077.75;5063107;28;20189;-76
2022/11/14 09:27:46;;;;;;;7.53;6.73;;;;;;;6.66;100.00;100083.72;5059730;28;20186;-76
2022/11/14 09:30:13;;;;;;;7.10;6.43;;;;;;;6.66;100.00;100076.88;5062919;28;20201;-76
2022/11/14 09:32:38;;;;;;;6.73;6.17;;;;;;;6.69;100.00;100082.06;5062609;28;20782;-76
2022/11/14 09:35:04;;;;;;;6.27;5.67;;;;;;;6.68;100.00;100072.63;5075981;28;20209;-78
2022/11/14 09:37:29;;;;;;;7.43;6.00;;;;;;;6.67;100.00;100070.03;5066250;28;20659;-76
2022/11/14 09:39:55;;;;;;;7.50;6.80;;;;;;;6.62;100.00;100071.75;5066119;28;20184;-77
2022/11/14 09:42:29;;;;;;;6.33;5.83;;;;;;;6.55;100.00;100071.69;5064934;28;20202;-76
2022/11/14 09:44:57;;;;;;;6.53;5.77;;;;;;;6.54;100.00;100069.13;5071677;28;20181;-76
2022/11/14 09:47:27;;;;;;;6.30;5.70;;;;;;;6.55;100.00;100074.28;5063175;28;20191;-77
2022/11/14 09:50:00;;;;;;;6.43;5.83;;;;;;;6.55;100.00;100069.13;5064911;28;20636;-76
2022/11/14 09:52:38;;;;;;;6.63;6.13;;;;;;;6.54;100.00;100069.97;5068985;28;20227;-76
2022/11/14 09:55:16;;;;;;;6.70;5.97;;;;;;;6.64;100.00;100080.31;5063141;28;20598;-76
2022/11/14 09:57:43;;;;;;;5.30;4.87;;;;;;;6.75;100.00;100072.63;5062681;28;20196;-78
2022/11/14 10:00:14;;;;;;;5.33;4.93;;;;;;;6.83;100.00;100063.22;5067390;28;20217;-76
2022/11/14 10:03:07;;;;;;;7.17;6.47;;;;;;;6.95;100.00;100062.41;5060801;28;20251;-76
2022/11/14 10:05:57;;;;;;;6.63;6.13;;;;;;;7.01;100.00;100064.97;5062161;28;20274;-78
2022/11/14 10:08:28;;;;;;;6.80;6.23;;;;;;;7.04;100.00;100065.00;5070716;28;20512;-76
2022/11/14 10:11:12;;;;;;;6.70;6.20;;;;;;;7.12;100.00;100078.72;5057174;28;20228;-77
2022/11/14 10:14:01;;;;;;;6.50;6.00;;;;;;;7.17;100.00;100071.03;5059628;28;20275;-77
2022/11/14 10:16:45;;;;;;;6.47;5.83;;;;;;;7.15;100.00;100068.44;5055610;28;20181;-76
2022/11/14 10:19:48;;;;;;;6.30;5.80;;;;;;;7.18;100.00;100065.03;5067652;28;20627;-76
2022/11/14 10:23:05;;;;;;;6.10;5.60;;;;;;;7.19;100.00;100064.13;5033723;28;20625;-77
2022/11/14 10:25:33;;;;;;;6.63;6.03;;;;;;;7.20;100.00;100063.28;5023860;28;20202;-77
2022/11/14 10:28:36;;;;;;;6.40;5.90;;;;;;;7.21;100.00;100059.00;5062890;28;20622;-77
2022/11/14 10:31:13;;;;;;;6.03;5.53;;;;;;;7.19;100.00;100059.00;5060478;28;20216;-76
2022/11/14 10:34:10;;;;;;;6.70;6.20;;;;;;;7.21;100.00;100053.88;5069549;28;20659;-77
2022/11/14 10:36:38;;;;;;;6.30;5.80;;;;;;;7.20;100.00;100057.28;5059676;28;20220;-76
2022/11/14 10:39:13;;;;;;;6.13;5.73;;;;;;;7.21;100.00;100056.44;5063352;28;20190;-76
2022/11/14 10:41:39;;;;;;;6.63;6.13;;;;;;;7.24;100.00;100057.28;5068255;28;20704;-78
2022/11/14 10:44:12;;;;;;;5.90;5.40;;;;;;;7.26;100.00;100042.72;5060438;28;20285;-76
2022/11/14 10:46:45;;;;;;;6.00;5.50;;;;;;;7.29;100.00;100055.59;5062228;28;20188;-77
2022/11/14 10:49:19;;;;;;;6.83;6.23;;;;;;;7.28;100.00;100050.41;5069167;28;20201;-77
2022/11/14 10:51:50;;;;;;;6.20;5.70;;;;;;;7.26;100.00;100047.03;5063773;28;20202;-77
2022/11/14 10:54:34;;;;;;;6.23;5.73;;;;;;;7.25;100.00;100045.28;5061460;28;20264;-77
2022/11/14 10:57:00;;;;;;;6.37;5.87;;;;;;;7.22;100.00;100051.28;5062546;28;20220;-77
2022/11/14 10:59:26;;;;;;;6.67;6.17;;;;;;;7.22;100.00;100045.28;5074829;28;20169;-77
2022/11/14 11:01:57;;;;;;;6.10;5.60;;;;;;;7.20;100.00;100034.97;5058683;28;20240;-77
2022/11/14 11:04:31;;;;;;;6.23;5.73;;;;;;;7.16;100.00;100046.16;5077891;28;20177;-76
2022/11/14 11:07:05;;;;;;;5.77;5.30;;;;;;;7.13;100.00;100046.97;5068603;28;20844;-76
2022/11/14 11:12:18;;;;;;;5.33;4.93;;;;;;;7.13;100.00;100039.25;5055830;28;20357;-76
2022/11/14 11:14:45;;;;;;;5.93;5.43;;;;;;;7.16;100.00;100033.28;5063712;28;20684;-76
2022/11/14 11:17:11;;;;;;;6.10;5.17;;;;;;;7.20;100.00;100032.41;5061705;28;20705;-77
2022/11/14 11:19:37;;;;;;;5.47;5.07;;;;;;;7.24;100.00;100023.84;5063581;28;20238;-78
2022/11/14 11:22:04;;;;;;;5.33;4.93;;;;;;;7.32;100.00;100029.84;5067401;28;20252;-76
2022/11/14 11:24:32;;;;;;;5.30;4.90;;;;;;;7.45;100.00;100029.84;5075446;28;20177;-78
2022/11/14 11:27:26;;;;;;;5.20;4.80;;;;;;;7.58;100.00;100018.69;5064801;28;20218;-77
2022/11/14 11:30:13;;;;;;;6.07;5.47;;;;;;;7.69;100.00;100021.25;5065812;28;20244;-76